Time;durP1;ratioP1;P1;durP2;ratioP2;P2;SDS_P1;SDS_P2;PMS_P1;PMS_P2;Temp;Humidity;BMP_temperature;BMP_pressure;BME280_temperature;BME280_humidity;BME280_pressure;Samples;Min_cycle;Max_cycle;Signal;HPM_P1;HPM_P2
2022/07/17 00:00:15;;;;;;;9.38;5.50;;;;;;;24.04;55.86;100150.81;5004606;28;21998;-70
2022/07/17 00:02:42;;;;;;;9.73;5.05;;;;;;;24.09;55.91;100154.16;5008146;28;20086;-70
2022/07/17 00:05:09;;;;;;;11.98;5.90;;;;;;;24.13;55.25;100148.50;5003550;28;20046;-69
2022/07/17 00:07:36;;;;;;;9.18;4.80;;;;;;;24.04;55.63;100150.81;5007506;28;20131;-70
2022/07/17 00:10:04;;;;;;;11.57;5.10;;;;;;;23.84;55.22;100102.41;5013845;28;20120;-69
2022/07/17 00:12:30;;;;;;;13.52;5.72;;;;;;;24.09;55.79;100144.78;5007171;28;20089;-69
2022/07/17 00:14:57;;;;;;;11.35;6.30;;;;;;;24.06;55.64;100154.09;5011949;28;20156;-68
2022/07/17 00:17:24;;;;;;;12.25;6.18;;;;;;;24.04;55.28;100150.81;5007196;28;20085;-69
2022/07/17 00:19:51;;;;;;;12.75;6.30;;;;;;;24.02;55.67;100156.91;5004421;28;20121;-70
2022/07/17 00:22:18;;;;;;;10.38;5.70;;;;;;;23.94;55.28;100149.44;5012644;28;20049;-70
2022/07/17 00:24:45;;;;;;;8.00;4.85;;;;;;;23.85;55.78;100155.38;5015522;28;20052;-70
2022/07/17 00:27:12;;;;;;;14.52;5.65;;;;;;;23.56;55.72;100121.84;5005113;28;20046;-70
2022/07/17 00:29:39;;;;;;;9.82;5.97;;;;;;;23.69;55.77;100151.00;5006484;28;20136;-70
2022/07/17 00:32:06;;;;;;;9.00;5.53;;;;;;;23.64;55.80;100140.72;5006857;28;20096;-70
2022/07/17 00:34:32;;;;;;;14.50;5.80;;;;;;;23.58;56.36;100140.19;5009715;28;20050;-69
2022/07/17 00:36:59;;;;;;;14.90;5.88;;;;;;;23.57;56.49;100135.72;5002327;28;20128;-69
2022/07/17 00:39:28;;;;;;;11.18;6.07;;;;;;;23.54;56.17;100127.91;5009179;28;20045;-69
2022/07/17 00:41:55;;;;;;;10.02;5.22;;;;;;;23.64;56.10;100149.28;5002413;28;20050;-70
2022/07/17 00:44:26;;;;;;;12.95;5.55;;;;;;;23.49;55.99;100122.53;5010020;28;20220;-70
2022/07/17 00:46:53;;;;;;;16.67;7.10;;;;;;;23.60;56.13;100148.38;5009262;28;20050;-71
2022/07/17 00:49:20;;;;;;;12.90;6.38;;;;;;;23.56;56.02;100148.31;5007899;28;20054;-69
2022/07/17 00:51:48;;;;;;;14.38;7.35;;;;;;;23.59;55.93;100152.41;5004732;28;20129;-69
2022/07/17 00:54:17;;;;;;;10.38;6.00;;;;;;;23.54;56.66;100144.19;5009743;28;20042;-69
2022/07/17 00:56:47;;;;;;;12.15;6.38;;;;;;;23.57;56.65;100140.59;5008295;28;20061;-69
2022/07/17 00:59:14;;;;;;;15.60;5.97;;;;;;;23.47;56.82;100126.97;5009218;28;20085;-69
2022/07/17 01:01:42;;;;;;;14.85;7.22;;;;;;;23.28;56.36;100096.47;5008708;28;20848;-69
2022/07/17 01:04:10;;;;;;;14.93;6.65;;;;;;;23.56;56.87;100148.31;5006441;28;20088;-70
2022/07/17 01:06:36;;;;;;;8.93;6.38;;;;;;;23.51;56.92;100156.34;5004961;28;20104;-70
2022/07/17 01:09:03;;;;;;;9.32;5.90;;;;;;;23.51;56.94;100156.34;5006426;28;20054;-70
2022/07/17 01:11:31;;;;;;;12.70;7.60;;;;;;;23.53;57.19;100148.25;5007863;28;20129;-70
2022/07/17 01:13:58;;;;;;;15.68;6.50;;;;;;;23.17;57.06;100094.25;5006202;28;20133;-70
2022/07/17 01:16:25;;;;;;;10.68;6.50;;;;;;;23.36;56.73;100116.19;5010686;28;20459;-70
2022/07/17 01:18:53;;;;;;;11.70;5.50;;;;;;;23.55;57.09;100137.28;5007475;28;20073;-70
2022/07/17 01:21:20;;;;;;;15.25;7.07;;;;;;;23.47;56.74;100115.56;5008823;28;20078;-71
2022/07/17 01:23:49;;;;;;;10.65;6.13;;;;;;;23.51;57.00;100119.28;5007214;28;20061;-70
2022/07/17 01:26:15;;;;;;;10.95;5.78;;;;;;;23.44;57.10;100113.47;5011897;28;20077;-70
2022/07/17 01:28:42;;;;;;;10.40;5.75;;;;;;;23.50;56.94;100129.06;5004965;28;20516;-69
2022/07/17 01:31:09;;;;;;;14.18;6.28;;;;;;;23.50;57.30;100129.06;5005003;28;20140;-69
2022/07/17 01:33:36;;;;;;;7.90;5.40;;;;;;;23.47;57.36;100122.06;5007467;28;20060;-71
2022/07/17 01:36:03;;;;;;;14.15;6.93;;;;;;;23.50;56.85;100135.56;4991254;28;20476;-69
2022/07/17 01:38:30;;;;;;;9.15;5.10;;;;;;;23.57;56.88;100143.44;5006923;28;20531;-69
2022/07/17 01:40:57;;;;;;;10.27;5.60;;;;;;;23.43;57.47;100115.50;5004889;28;20073;-69
2022/07/17 01:43:23;;;;;;;11.00;5.80;;;;;;;23.46;57.09;100119.63;5007360;28;20077;-70
2022/07/17 01:45:51;;;;;;;11.63;5.40;;;;;;;23.50;57.27;100117.66;5007126;28;20049;-68
2022/07/17 01:48:29;;;;;;;12.77;5.65;;;;;;;23.61;57.25;100118.66;5006869;28;20085;-70
2022/07/17 01:50:56;;;;;;;9.73;5.72;;;;;;;23.65;57.19;100133.81;5008407;28;20041;-70
2022/07/17 01:53:25;;;;;;;13.00;5.22;;;;;;;23.69;56.72;100131.03;5005534;28;20074;-69
2022/07/17 01:55:52;;;;;;;11.77;5.75;;;;;;;23.70;57.05;100133.53;5000282;28;20054;-70
2022/07/17 01:58:18;;;;;;;9.10;5.30;;;;;;;23.67;56.71;100142.81;5013023;28;20450;-71
2022/07/17 02:00:45;;;;;;;10.82;5.70;;;;;;;23.35;56.79;100083.19;5008734;28;20155;-71
2022/07/17 02:03:12;;;;;;;13.75;5.68;;;;;;;23.65;56.57;100139.50;5007689;28;20069;-70
2022/07/17 02:05:39;;;;;;;10.20;6.75;;;;;;;23.50;56.85;100120.50;5013916;28;20498;-69
2022/07/17 02:08:06;;;;;;;12.05;5.57;;;;;;;23.57;56.51;100129.19;5013793;28;20058;-69
2022/07/17 02:10:33;;;;;;;12.38;6.07;;;;;;;23.54;57.01;100122.22;5012464;28;20092;-68
2022/07/17 02:13:00;;;;;;;10.82;5.88;;;;;;;23.45;57.13;100104.53;5002738;28;20076;-68
2022/07/17 02:15:28;;;;;;;9.45;5.57;;;;;;;23.40;56.49;100088.56;5006551;28;20062;-68
2022/07/17 02:17:54;;;;;;;15.05;6.55;;;;;;;23.42;56.61;100096.75;5005660;28;20093;-68
2022/07/17 02:20:22;;;;;;;12.13;5.60;;;;;;;23.54;56.50;100105.09;5004925;28;20172;-70
2022/07/17 02:22:49;;;;;;;10.25;5.35;;;;;;;23.63;56.83;100117.09;5010855;28;20082;-70
2022/07/17 02:25:16;;;;;;;13.55;5.97;;;;;;;23.65;56.41;100117.50;5005857;28;20088;-69
2022/07/17 02:27:43;;;;;;;12.35;6.15;;;;;;;23.63;56.51;100119.94;5003537;28;20456;-70
2022/07/17 02:30:15;;;;;;;8.25;5.40;;;;;;;23.54;56.93;100110.00;4998440;28;20081;-69
2022/07/17 02:32:43;;;;;;;9.95;5.68;;;;;;;23.50;56.39;100120.50;5009075;28;20081;-69
2022/07/17 02:35:11;;;;;;;12.13;5.40;;;;;;;23.41;56.49;100110.16;5005708;28;20045;-69
2022/07/17 02:37:39;;;;;;;14.52;5.93;;;;;;;23.45;56.74;100120.81;5007016;28;20050;-69
2022/07/17 02:40:07;;;;;;;10.45;5.50;;;;;;;23.35;57.15;100113.69;5002533;28;20076;-69
2022/07/17 02:42:33;;;;;;;11.32;5.55;;;;;;;23.38;56.82;100130.88;5005144;28;20144;-69
2022/07/17 02:45:01;;;;;;;9.02;5.45;;;;;;;23.24;56.68;100102.09;5012386;28;20133;-70
2022/07/17 02:47:30;;;;;;;11.57;6.18;;;;;;;23.38;56.72;100119.50;5012057;28;20050;-69
2022/07/17 02:49:59;;;;;;;9.10;5.03;;;;;;;23.32;56.89;100125.88;5016140;28;20046;-69
2022/07/17 02:52:26;;;;;;;7.60;5.40;;;;;;;23.29;57.28;100118.91;5011483;28;20056;-69
2022/07/17 02:54:53;;;;;;;9.57;5.20;;;;;;;23.16;56.88;100108.88;5007606;28;20092;-71
2022/07/17 02:57:20;;;;;;;10.68;6.22;;;;;;;23.14;57.07;100097.00;5004542;28;20160;-68
2022/07/17 02:59:47;;;;;;;15.48;5.60;;;;;;;23.21;57.15;100102.84;5009868;28;20082;-67
2022/07/17 03:02:15;;;;;;;10.82;6.00;;;;;;;23.04;57.37;100089.09;5012367;28;20070;-71
2022/07/17 03:04:42;;;;;;;13.57;4.95;;;;;;;23.20;56.93;100112.59;5008173;28;20100;-70
2022/07/17 03:07:09;;;;;;;10.52;5.38;;;;;;;23.07;56.96;100097.69;5008206;28;20049;-69
2022/07/17 03:09:36;;;;;;;8.77;4.90;;;;;;;23.17;57.16;100110.50;5009930;28;20132;-69
2022/07/17 03:12:02;;;;;;;16.30;5.68;;;;;;;23.14;57.36;100119.81;5005967;28;20078;-70
2022/07/17 03:14:29;;;;;;;10.52;5.25;;;;;;;22.83;57.26;100081.72;5010703;28;20081;-70
2022/07/17 03:16:56;;;;;;;11.77;5.53;;;;;;;23.06;57.34;100118.84;5009511;28;20053;-69
2022/07/17 03:19:23;;;;;;;11.02;5.82;;;;;;;23.00;57.42;100117.50;5005128;28;20058;-69
2022/07/17 03:21:50;;;;;;;13.00;5.30;;;;;;;23.03;57.29;100113.91;5000047;28;20077;-68
2022/07/17 03:24:17;;;;;;;14.82;5.80;;;;;;;22.67;57.68;100078.16;5007367;28;20635;-68
2022/07/17 03:26:44;;;;;;;10.18;6.25;;;;;;;22.81;57.36;100092.69;5005062;28;20058;-69
2022/07/17 03:29:11;;;;;;;11.85;5.22;;;;;;;22.82;57.75;100102.84;5007878;28;20133;-69
2022/07/17 03:31:38;;;;;;;10.30;6.35;;;;;;;22.77;57.29;100088.94;5007595;28;20137;-69
2022/07/17 03:34:05;;;;;;;8.57;5.55;;;;;;;22.75;57.70;100097.00;5006488;28;20868;-68
2022/07/17 03:36:32;;;;;;;10.02;5.57;;;;;;;22.85;57.66;100119.19;5002129;28;20078;-72
2022/07/17 03:38:59;;;;;;;13.18;5.68;;;;;;;22.78;57.63;100112.53;5004630;28;20085;-69
2022/07/17 03:41:26;;;;;;;12.65;5.75;;;;;;;22.76;57.87;100107.19;4997325;28;20093;-70
2022/07/17 03:43:54;;;;;;;7.10;4.65;;;;;;;22.79;57.79;100111.31;5011361;28;20056;-71
2022/07/17 03:46:21;;;;;;;8.52;4.75;;;;;;;22.77;57.74;100102.31;5008776;28;20078;-71
2022/07/17 03:48:49;;;;;;;9.43;5.28;;;;;;;22.67;58.09;100090.34;4997933;28;20050;-70
2022/07/17 03:51:16;;;;;;;9.65;5.25;;;;;;;22.70;57.91;100103.84;4997132;28;20146;-70
2022/07/17 03:53:43;;;;;;;8.57;5.47;;;;;;;22.62;58.35;100090.63;5007881;28;20084;-71
2022/07/17 03:56:10;;;;;;;11.65;5.65;;;;;;;22.68;58.16;100099.72;5002834;28;20078;-72
2022/07/17 03:58:36;;;;;;;11.30;5.75;;;;;;;22.51;58.01;100072.50;5007106;28;20516;-71
2022/07/17 04:01:04;;;;;;;13.55;5.88;;;;;;;22.68;58.02;100094.03;5003205;28;20581;-71
2022/07/17 04:03:31;;;;;;;9.50;5.40;;;;;;;22.61;58.15;100082.47;5004902;28;20132;-71
2022/07/17 04:05:57;;;;;;;17.88;6.20;;;;;;;22.60;58.26;100097.91;5005766;28;20084;-71
2022/07/17 04:08:24;;;;;;;16.10;5.57;;;;;;;22.61;58.32;100091.03;4992905;28;20485;-72
2022/07/17 04:10:51;;;;;;;11.07;5.15;;;;;;;22.56;58.54;100094.16;5010297;28;20069;-71
2022/07/17 04:13:18;;;;;;;11.73;5.20;;;;;;;22.59;58.18;100099.09;5009565;28;20085;-72
2022/07/17 04:15:57;;;;;;;9.20;4.72;;;;;;;22.49;58.52;100080.59;5011911;28;20053;-72
2022/07/17 04:18:28;;;;;;;10.50;5.72;;;;;;;22.59;58.29;100087.72;5007877;28;20104;-71
2022/07/17 04:20:58;;;;;;;8.32;5.28;;;;;;;22.60;58.70;100089.38;5009875;28;20127;-71
2022/07/17 04:23:25;;;;;;;15.60;6.45;;;;;;;22.54;58.73;100090.88;5013813;28;20058;-71
2022/07/17 04:25:52;;;;;;;10.95;4.88;;;;;;;22.57;58.45;100084.44;5008450;28;20564;-71
2022/07/17 04:28:19;;;;;;;18.20;6.53;;;;;;;22.52;58.43;100079.03;5012818;28;20077;-71
2022/07/17 04:30:46;;;;;;;9.90;5.47;;;;;;;22.65;58.84;100097.63;5009113;28;20072;-71
2022/07/17 04:33:15;;;;;;;13.80;5.47;;;;;;;22.57;58.85;100084.44;5008925;28;20050;-71
2022/07/17 04:35:42;;;;;;;14.38;6.30;;;;;;;22.58;58.65;100101.13;5006200;28;20124;-71
2022/07/17 04:38:10;;;;;;;9.07;5.60;;;;;;;22.51;58.95;100105.84;5010749;28;20073;-71
2022/07/17 04:40:38;;;;;;;11.82;6.63;;;;;;;22.35;59.12;100106.69;5010696;28;20050;-71
2022/07/17 04:43:05;;;;;;;16.10;7.93;;;;;;;22.27;59.37;100098.38;5008740;28;20137;-70
2022/07/17 04:45:34;;;;;;;12.48;6.72;;;;;;;21.94;59.33;100057.75;5008866;28;20133;-70
2022/07/17 04:48:01;;;;;;;12.60;6.60;;;;;;;22.11;59.49;100106.91;5001556;28;20077;-70
2022/07/17 04:50:28;;;;;;;12.45;7.68;;;;;;;22.00;59.51;100121.69;5010576;28;20116;-70
2022/07/17 04:52:56;;;;;;;15.95;6.97;;;;;;;21.76;60.20;100102.00;5013725;28;20081;-70
2022/07/17 04:55:23;;;;;;;15.43;7.28;;;;;;;21.83;59.94;100119.22;5008622;28;20141;-71
2022/07/17 04:57:50;;;;;;;12.25;7.15;;;;;;;21.66;60.38;100122.44;5005657;28;20060;-71
2022/07/17 05:00:17;;;;;;;15.02;7.53;;;;;;;21.53;60.75;100128.19;5008372;28;20137;-71
2022/07/17 05:02:44;;;;;;;13.50;6.68;;;;;;;21.27;60.97;100120.16;5008781;28;20097;-71
2022/07/17 05:05:11;;;;;;;18.67;8.13;;;;;;;21.20;61.27;100119.97;5006272;28;20076;-69
2022/07/17 05:07:38;;;;;;;14.52;7.32;;;;;;;21.27;61.14;100139.22;5011027;28;20050;-69
2022/07/17 05:10:06;;;;;;;19.08;8.68;;;;;;;21.09;61.40;100112.31;5011240;28;20136;-69
2022/07/17 05:12:33;;;;;;;18.65;7.95;;;;;;;21.24;61.41;100142.78;5005976;28;20045;-70
2022/07/17 05:15:00;;;;;;;16.67;8.07;;;;;;;20.92;61.44;100122.81;5007557;28;20136;-72
2022/07/17 05:17:28;;;;;;;14.35;8.10;;;;;;;20.98;61.61;100132.72;5009366;28;20058;-69
2022/07/17 05:19:56;;;;;;;16.10;8.80;;;;;;;21.05;61.60;100129.25;5008973;28;20107;-69
2022/07/17 05:22:23;;;;;;;14.00;7.40;;;;;;;21.05;61.66;100144.28;5010727;28;20076;-69
2022/07/17 05:24:50;;;;;;;14.68;7.68;;;;;;;21.06;61.88;100165.00;5009008;28;20053;-69
2022/07/17 05:27:17;;;;;;;16.48;6.75;;;;;;;21.06;62.00;100170.69;5003696;28;20069;-70
2022/07/17 05:29:44;;;;;;;15.23;7.45;;;;;;;20.96;62.10;100180.53;5009909;28;20077;-69
2022/07/17 05:32:10;;;;;;;12.18;6.25;;;;;;;20.98;62.22;100180.97;5008159;28;20081;-69
2022/07/17 05:34:37;;;;;;;11.18;6.60;;;;;;;20.75;62.26;100155.16;5008837;28;20073;-71
2022/07/17 05:37:04;;;;;;;15.93;7.57;;;;;;;20.92;62.11;100182.44;5007627;28;20221;-70
2022/07/17 05:39:31;;;;;;;14.98;6.65;;;;;;;20.95;62.29;100195.06;5010251;28;20136;-70
2022/07/17 05:41:58;;;;;;;9.88;6.07;;;;;;;20.92;62.32;100188.13;5010117;28;20073;-71
2022/07/17 05:44:24;;;;;;;14.88;6.65;;;;;;;21.00;62.08;100209.00;5001811;28;20180;-70
2022/07/17 05:46:51;;;;;;;11.80;6.30;;;;;;;20.99;61.91;100213.88;5006136;28;20108;-70
2022/07/17 05:49:18;;;;;;;11.25;5.75;;;;;;;20.96;62.46;100222.28;5005801;28;20056;-68
2022/07/17 05:51:45;;;;;;;9.35;4.90;;;;;;;20.83;62.49;100218.63;5008337;28;20137;-69
2022/07/17 05:54:12;;;;;;;11.55;6.18;;;;;;;20.85;62.77;100221.09;5005500;28;20576;-69
2022/07/17 05:56:39;;;;;;;8.02;4.63;;;;;;;20.85;62.51;100227.59;5010209;28;20081;-69
2022/07/17 05:59:05;;;;;;;8.68;4.55;;;;;;;20.95;62.57;100210.06;5006170;28;20137;-69
2022/07/17 06:01:33;;;;;;;6.57;4.03;;;;;;;21.06;62.42;100219.75;5001151;28;20493;-68
2022/07/17 06:04:01;;;;;;;10.77;4.05;;;;;;;21.11;62.28;100207.31;5010736;28;20394;-73
2022/07/17 06:06:28;;;;;;;7.68;4.13;;;;;;;21.14;62.62;100217.13;5009212;28;20050;-67
2022/07/17 06:08:54;;;;;;;7.57;4.00;;;;;;;21.04;62.53;100213.59;5010422;28;20069;-66
2022/07/17 06:11:21;;;;;;;7.35;3.75;;;;;;;21.14;62.47;100232.16;5010447;28;20556;-67
2022/07/17 06:13:54;;;;;;;5.85;3.65;;;;;;;21.15;62.54;100235.81;5010994;28;20129;-67
2022/07/17 06:16:21;;;;;;;6.13;3.75;;;;;;;21.06;62.67;100218.94;5005829;28;20104;-68
2022/07/17 06:18:48;;;;;;;6.75;3.38;;;;;;;20.93;62.48;100209.63;5007037;28;20049;-69
2022/07/17 06:21:16;;;;;;;9.75;3.97;;;;;;;20.90;62.72;100201.81;5004402;28;20096;-70
2022/07/17 06:23:42;;;;;;;7.15;3.38;;;;;;;21.12;62.78;100237.34;5011525;28;20136;-70
2022/07/17 06:26:09;;;;;;;8.35;3.70;;;;;;;20.80;62.90;100188.13;5005946;28;20104;-71
2022/07/17 06:28:36;;;;;;;6.78;3.60;;;;;;;21.06;62.87;100235.97;5002792;28;20148;-71
2022/07/17 06:31:03;;;;;;;10.52;3.78;;;;;;;21.03;63.17;100240.34;5001958;28;20137;-70
2022/07/17 06:33:30;;;;;;;6.15;3.47;;;;;;;21.04;62.86;100242.00;5004485;28;20141;-71
2022/07/17 06:35:57;;;;;;;7.40;3.95;;;;;;;21.08;63.29;100244.94;5005845;28;20141;-72
2022/07/17 06:38:24;;;;;;;6.68;4.00;;;;;;;21.34;63.37;100255.91;5007874;28;20081;-70
2022/07/17 06:40:51;;;;;;;7.53;3.85;;;;;;;21.51;62.49;100249.09;5003241;28;20854;-71
2022/07/17 06:43:18;;;;;;;10.70;4.38;;;;;;;21.64;62.20;100233.63;5001130;28;20078;-71
2022/07/17 06:45:45;;;;;;;8.48;4.50;;;;;;;21.86;61.70;100243.56;4997149;28;20053;-70
2022/07/17 06:48:11;;;;;;;7.40;4.70;;;;;;;22.09;61.29;100232.41;5007473;28;20397;-70
2022/07/17 06:50:38;;;;;;;9.65;4.43;;;;;;;22.25;60.77;100218.19;5002654;28;20077;-71
2022/07/17 06:53:06;;;;;;;13.13;5.40;;;;;;;22.43;60.86;100239.41;5002443;28;20066;-72
2022/07/17 06:55:32;;;;;;;10.20;4.75;;;;;;;22.64;60.47;100267.56;5003854;28;20497;-70
2022/07/17 06:57:59;;;;;;;9.05;4.85;;;;;;;22.51;60.51;100239.56;5003713;28;20058;-70
2022/07/17 07:00:26;;;;;;;10.48;5.00;;;;;;;22.77;60.49;100254.03;4998569;28;20089;-71
2022/07/17 07:02:53;;;;;;;9.82;4.93;;;;;;;22.85;60.05;100250.16;4993609;28;20081;-69
2022/07/17 07:05:20;;;;;;;12.80;6.07;;;;;;;23.06;59.68;100254.72;5002979;28;20243;-69
2022/07/17 07:07:47;;;;;;;10.20;5.07;;;;;;;23.18;59.54;100257.44;4999581;28;20081;-69
2022/07/17 07:10:14;;;;;;;10.35;5.47;;;;;;;23.47;59.23;100246.66;5004457;28;20120;-69
2022/07/17 07:12:41;;;;;;;12.98;5.00;;;;;;;23.63;58.85;100233.16;5004760;28;20459;-69
2022/07/17 07:15:09;;;;;;;8.85;5.20;;;;;;;24.00;58.46;100218.38;5006531;28;20046;-69
2022/07/17 07:17:40;;;;;;;7.07;4.95;;;;;;;24.38;58.08;100245.13;5001414;28;20583;-71
2022/07/17 07:20:07;;;;;;;10.95;4.80;;;;;;;24.66;57.57;100245.63;5009146;28;20089;-70
2022/07/17 07:22:34;;;;;;;10.55;5.38;;;;;;;24.90;56.60;100255.78;5007079;28;20145;-69
2022/07/17 07:25:03;;;;;;;8.18;5.38;;;;;;;24.93;56.65;100259.91;5005575;28;20050;-68
2022/07/17 07:27:30;;;;;;;9.60;5.35;;;;;;;25.15;56.35;100259.03;5001622;28;20580;-69
2022/07/17 07:29:56;;;;;;;9.70;5.57;;;;;;;25.68;55.66;100266.66;5010256;28;20141;-69
2022/07/17 07:32:23;;;;;;;11.20;6.22;;;;;;;25.82;54.89;100249.69;5003263;28;20500;-69
2022/07/17 07:34:50;;;;;;;12.10;5.45;;;;;;;25.95;54.49;100264.56;5003094;28;20133;-70
2022/07/17 07:37:17;;;;;;;8.57;5.65;;;;;;;26.00;54.49;100258.47;5000604;28;20488;-69
2022/07/17 07:39:45;;;;;;;11.68;5.90;;;;;;;26.08;54.26;100267.94;5003789;28;20133;-70
2022/07/17 07:42:12;;;;;;;11.55;6.10;;;;;;;26.37;53.65;100274.78;5004859;28;20073;-69
2022/07/17 07:44:39;;;;;;;10.25;6.03;;;;;;;26.42;53.23;100265.81;5003441;28;20057;-69
2022/07/17 07:47:05;;;;;;;10.35;6.28;;;;;;;26.75;52.87;100269.78;5005960;28;20063;-71
2022/07/17 07:49:32;;;;;;;9.48;5.65;;;;;;;26.79;52.65;100277.19;5005908;28;20476;-70
2022/07/17 07:52:06;;;;;;;7.75;5.35;;;;;;;26.91;52.14;100264.59;5007423;28;20073;-68
2022/07/17 07:54:33;;;;;;;14.93;5.53;;;;;;;27.25;51.71;100273.84;5007851;28;20468;-70
2022/07/17 07:57:01;;;;;;;9.82;4.82;;;;;;;27.26;50.95;100263.19;5006107;28;20132;-70
2022/07/17 07:59:32;;;;;;;7.65;4.07;;;;;;;27.54;51.13;100276.84;5007457;28;20493;-70
2022/07/17 08:02:00;;;;;;;8.45;3.83;;;;;;;27.86;50.69;100272.09;5009815;28;20096;-71
2022/07/17 08:04:27;;;;;;;5.65;3.75;;;;;;;28.17;50.26;100265.97;5000651;28;20053;-71
2022/07/17 08:06:54;;;;;;;7.95;3.90;;;;;;;28.33;49.52;100269.28;5005735;28;20085;-70
2022/07/17 08:09:21;;;;;;;5.40;3.60;;;;;;;28.47;49.26;100257.03;5006372;28;20077;-70
2022/07/17 08:11:48;;;;;;;8.48;3.88;;;;;;;28.60;48.81;100266.06;5008330;28;20141;-71
2022/07/17 08:14:15;;;;;;;10.90;4.18;;;;;;;28.77;48.67;100262.34;5003764;28;20571;-70
2022/07/17 08:16:43;;;;;;;7.32;3.55;;;;;;;28.88;48.52;100253.72;5004230;28;20145;-71
2022/07/17 08:19:11;;;;;;;10.35;4.20;;;;;;;28.77;48.22;100243.06;5004460;28;20064;-71
2022/07/17 08:21:38;;;;;;;5.80;4.05;;;;;;;28.85;48.58;100271.78;5004643;28;20141;-70
2022/07/17 08:24:06;;;;;;;5.95;3.20;;;;;;;28.98;48.16;100281.63;5005276;28;20050;-70
2022/07/17 08:26:33;;;;;;;6.03;3.67;;;;;;;29.10;47.34;100286.97;5008163;28;20136;-71
2022/07/17 08:29:00;;;;;;;6.72;4.15;;;;;;;28.81;47.66;100289.03;5001346;28;20053;-70
2022/07/17 08:31:27;;;;;;;10.55;4.85;;;;;;;28.27;48.72;100276.66;5004745;28;20651;-70
2022/07/17 08:33:54;;;;;;;9.70;5.05;;;;;;;28.36;48.50;100288.56;5005875;28;20057;-69
2022/07/17 08:36:21;;;;;;;7.57;4.95;;;;;;;28.24;48.65;100281.19;5004016;28;20046;-70
2022/07/17 08:38:48;;;;;;;10.70;5.93;;;;;;;28.42;48.28;100286.97;5005915;28;20054;-70
2022/07/17 08:41:17;;;;;;;8.27;4.82;;;;;;;28.81;47.31;100280.41;5006773;28;20077;-70
2022/07/17 08:43:44;;;;;;;9.18;5.22;;;;;;;28.70;47.15;100288.22;5004089;28;20141;-70
2022/07/17 08:46:11;;;;;;;9.95;4.38;;;;;;;28.53;47.62;100279.19;5006747;28;20137;-69
2022/07/17 08:48:45;;;;;;;7.20;4.80;;;;;;;28.69;47.38;100298.06;5004603;28;20046;-70
2022/07/17 08:51:17;;;;;;;8.85;5.25;;;;;;;28.60;47.12;100304.22;5004182;28;20045;-70
2022/07/17 08:53:44;;;;;;;10.02;5.07;;;;;;;28.63;47.19;100288.22;5002460;28;20054;-70
2022/07/17 08:56:13;;;;;;;7.82;4.60;;;;;;;28.77;46.73;100291.91;5005112;28;20133;-69
2022/07/17 08:58:39;;;;;;;12.77;4.73;;;;;;;29.13;46.48;100312.03;5007657;28;20060;-69
2022/07/17 09:01:07;;;;;;;9.05;5.28;;;;;;;29.21;45.80;100284.88;5008685;28;20100;-69
2022/07/17 09:03:36;;;;;;;10.15;5.00;;;;;;;29.24;45.66;100300.50;5001891;28;20520;-70
2022/07/17 09:06:22;;;;;;;9.52;5.90;;;;;;;29.26;45.57;100304.59;5002276;28;20112;-70
2022/07/17 09:09:09;;;;;;;9.70;5.82;;;;;;;29.26;45.38;100304.59;5004249;28;20505;-70
2022/07/17 09:11:48;;;;;;;9.88;5.95;;;;;;;29.34;45.14;100319.78;5009795;28;20054;-70
2022/07/17 09:14:15;;;;;;;10.18;5.80;;;;;;;29.41;45.34;100327.56;5005670;28;20085;-69
2022/07/17 09:16:55;;;;;;;13.55;6.40;;;;;;;29.49;45.07;100307.00;5000569;28;20100;-69
2022/07/17 09:19:36;;;;;;;10.35;6.00;;;;;;;29.67;44.82;100306.13;5002175;28;20100;-69
2022/07/17 09:22:06;;;;;;;10.20;6.70;;;;;;;29.96;44.62;100293.25;5000139;28;20050;-70
2022/07/17 09:24:41;;;;;;;10.80;5.97;;;;;;;30.56;43.73;100316.34;5002098;28;20126;-69
2022/07/17 09:27:08;;;;;;;10.65;6.65;;;;;;;30.32;43.27;100318.97;4999547;28;20136;-70
2022/07/17 09:30:11;;;;;;;9.85;6.10;;;;;;;30.30;43.76;100307.06;5005166;28;20565;-71
2022/07/17 09:32:41;;;;;;;11.55;5.70;;;;;;;30.22;43.81;100296.81;5006951;28;20046;-70
2022/07/17 09:35:10;;;;;;;7.32;5.43;;;;;;;30.49;43.73;100299.09;5002872;28;20485;-69
2022/07/17 09:37:38;;;;;;;11.25;6.10;;;;;;;30.91;42.95;100310.31;5004070;28;20105;-69
2022/07/17 09:41:09;;;;;;;6.55;5.30;;;;;;;31.14;42.65;100300.19;5006478;28;20469;-70
2022/07/17 09:43:03;;;;;;;10.13;5.50;;;;;;;31.47;42.12;100306.47;4999180;28;20105;-70
2022/07/17 09:45:33;;;;;;;9.13;5.18;;;;;;;31.71;41.15;100288.03;5001451;28;20045;-69
2022/07/17 09:48:00;;;;;;;10.40;6.07;;;;;;;31.61;41.30;100312.06;5002695;28;20092;-69
2022/07/17 09:50:52;;;;;;;9.27;5.78;;;;;;;31.46;41.90;100319.28;5005981;28;20110;-71
2022/07/17 09:53:46;;;;;;;10.10;5.80;;;;;;;31.54;41.47;100306.41;4990831;23;20061;-70
2022/07/17 09:56:19;;;;;;;10.00;5.28;;;;;;;31.36;41.44;100298.75;4980244;28;20446;-69
2022/07/17 09:58:52;;;;;;;10.93;5.63;;;;;;;31.53;41.56;100314.25;4988644;28;20050;-68
2022/07/17 10:01:20;;;;;;;8.60;5.53;;;;;;;32.00;40.47;100317.38;4987259;28;20112;-69
2022/07/17 10:03:53;;;;;;;11.13;6.22;;;;;;;31.79;41.11;100306.88;4990784;28;20058;-72
2022/07/17 10:06:22;;;;;;;8.60;5.60;;;;;;;31.62;41.00;100320.31;4988751;28;20085;-76
2022/07/17 10:08:51;;;;;;;9.60;5.18;;;;;;;31.93;40.51;100320.34;4988241;28;20081;-78
2022/07/17 10:11:23;;;;;;;11.00;6.65;;;;;;;32.25;39.86;100316.22;4988476;28;20094;-83
2022/07/17 10:13:52;;;;;;;8.70;6.13;;;;;;;32.38;39.89;100311.47;4987578;28;20046;-77
2022/07/17 10:16:28;;;;;;;9.20;5.30;;;;;;;32.56;39.72;100314.09;4977497;28;20423;-76
2022/07/17 10:18:57;;;;;;;12.57;6.05;;;;;;;32.70;39.09;100322.53;4989014;28;20047;-74
2022/07/17 10:21:26;;;;;;;9.82;5.75;;;;;;;32.53;39.41;100315.78;4984054;28;20050;-78
2022/07/17 10:23:56;;;;;;;7.65;4.95;;;;;;;32.84;39.25;100329.34;4990130;28;20082;-78
2022/07/17 10:26:39;;;;;;;7.35;4.82;;;;;;;33.10;38.90;100322.72;4987239;28;20054;-81
2022/07/17 10:29:25;;;;;;;7.60;5.00;;;;;;;33.15;38.74;100319.31;4980682;28;20408;-80
2022/07/17 10:31:53;;;;;;;7.90;5.05;;;;;;;33.24;38.24;100293.50;4985445;28;20514;-80
2022/07/17 10:34:41;;;;;;;7.05;4.40;;;;;;;33.59;38.34;100322.22;4991393;28;20545;-81
2022/07/17 10:37:43;;;;;;;8.90;5.60;;;;;;;33.37;38.73;100322.63;4985968;28;20050;-78
2022/07/17 10:40:18;;;;;;;8.80;5.15;;;;;;;33.45;38.25;100320.41;4981911;28;20059;-79
2022/07/17 10:42:45;;;;;;;7.75;4.80;;;;;;;33.70;37.88;100338.09;4992171;28;20165;-83
2022/07/17 10:45:15;;;;;;;8.18;5.15;;;;;;;33.95;37.54;100323.13;4986198;28;20158;-77
2022/07/17 10:47:46;;;;;;;8.52;4.63;;;;;;;34.01;37.61;100323.41;4982054;28;20108;-87
2022/07/17 10:50:14;;;;;;;8.02;5.07;;;;;;;34.06;37.22;100302.63;4990168;28;20046;-82
2022/07/17 10:52:41;;;;;;;8.65;5.05;;;;;;;34.38;37.31;100318.44;4981024;28;20050;-81
2022/07/17 10:55:20;;;;;;;7.20;4.78;;;;;;;34.43;37.03;100278.16;4987756;28;20502;-78
2022/07/17 10:57:48;;;;;;;8.35;4.75;;;;;;;34.75;36.55;100287.34;4987815;28;20141;-80
2022/07/17 11:00:18;;;;;;;7.73;5.10;;;;;;;35.06;36.69;100303.09;4980971;28;20088;-79
2022/07/17 11:02:45;;;;;;;9.50;4.70;;;;;;;35.07;36.03;100286.50;4990138;28;20882;-81
2022/07/17 11:05:14;;;;;;;8.20;5.18;;;;;;;35.29;35.91;100299.16;4980898;28;20106;-81
2022/07/17 11:07:51;;;;;;;;;;;;;;;35.20;37.59;100301.09;4985814;28;20132;-83
2022/07/17 11:10:20;;;;;;;7.38;5.18;;;;;;;35.18;36.68;100309.41;4981330;28;20372;-86
2022/07/17 11:12:46;;;;;;;9.20;5.00;;;;;;;35.20;36.17;100289.47;4978371;28;20121;-81
2022/07/17 11:15:13;;;;;;;8.40;5.38;;;;;;;35.40;35.73;100286.44;4988832;28;20082;-83
2022/07/17 11:17:47;;;;;;;6.47;5.32;;;;;;;35.67;35.90;100277.38;4985298;28;20489;-84
2022/07/17 11:20:16;;;;;;;8.10;4.63;;;;;;;35.99;35.87;100300.44;4994176;28;20145;-87
2022/07/17 11:22:43;;;;;;;7.80;4.35;;;;;;;35.91;35.86;100290.34;4999439;28;20310;-92
2022/07/17 11:25:11;;;;;;;8.57;4.60;;;;;;;36.05;35.18;100297.81;4991252;28;20081;-88
2022/07/17 11:27:38;;;;;;;6.47;4.50;;;;;;;36.12;35.17;100305.50;4991665;28;20054;-81